sensor_id;sensor_type;location;lat;lon;timestamp;pressure;altitude;pressure_sealevel;temperature;humidity
62926;BME280;55732;52.248;-0.844;2023-02-11T00:01:35;102605.05;;;7.65;88.32
62926;BME280;55732;52.248;-0.844;2023-02-11T00:04:02;102604.20;;;7.62;88.32
62926;BME280;55732;52.248;-0.844;2023-02-11T00:06:30;102603.63;;;7.61;88.40
62926;BME280;55732;52.248;-0.844;2023-02-11T00:08:56;102603.56;;;7.59;88.56
62926;BME280;55732;52.248;-0.844;2023-02-11T00:11:23;102609.39;;;7.60;88.73
62926;BME280;55732;52.248;-0.844;2023-02-11T00:13:58;102609.21;;;7.60;88.66
62926;BME280;55732;52.248;-0.844;2023-02-11T00:16:24;102608.52;;;7.60;88.78
62926;BME280;55732;52.248;-0.844;2023-02-11T00:18:50;102601.02;;;7.61;88.80
62926;BME280;55732;52.248;-0.844;2023-02-11T00:21:21;102603.71;;;7.63;88.73
62926;BME280;55732;52.248;-0.844;2023-02-11T00:23:47;102599.73;;;7.64;88.77
62926;BME280;55732;52.248;-0.844;2023-02-11T00:26:19;102601.35;;;7.65;88.72
62926;BME280;55732;52.248;-0.844;2023-02-11T00:28:46;102602.10;;;7.66;88.77
62926;BME280;55732;52.248;-0.844;2023-02-11T00:31:13;102602.11;;;7.66;88.74
62926;BME280;55732;52.248;-0.844;2023-02-11T00:33:39;102609.72;;;7.68;88.75
62926;BME280;55732;52.248;-0.844;2023-02-11T00:36:11;102605.55;;;7.69;88.76
62926;BME280;55732;52.248;-0.844;2023-02-11T00:38:37;102608.27;;;7.71;88.71
62926;BME280;55732;52.248;-0.844;2023-02-11T00:41:03;102604.27;;;7.72;88.57
62926;BME280;55732;52.248;-0.844;2023-02-11T00:43:28;102592.83;;;7.71;88.57
62926;BME280;55732;52.248;-0.844;2023-02-11T00:45:54;102584.22;;;7.71;88.72
62926;BME280;55732;52.248;-0.844;2023-02-11T00:48:19;102583.52;;;7.71;88.79
62926;BME280;55732;52.248;-0.844;2023-02-11T00:50:45;102586.38;;;7.72;88.81
62926;BME280;55732;52.248;-0.844;2023-02-11T00:53:10;102585.19;;;7.72;88.86
62926;BME280;55732;52.248;-0.844;2023-02-11T00:55:36;102580.50;;;7.73;88.71
62926;BME280;55732;52.248;-0.844;2023-02-11T00:58:01;102579.27;;;7.74;88.72
62926;BME280;55732;52.248;-0.844;2023-02-11T01:00:27;102577.89;;;7.74;88.68
62926;BME280;55732;52.248;-0.844;2023-02-11T01:02:53;102578.46;;;7.75;88.84
62926;BME280;55732;52.248;-0.844;2023-02-11T01:05:19;102581.30;;;7.76;88.86
62926;BME280;55732;52.248;-0.844;2023-02-11T01:07:45;102578.16;;;7.76;88.86
62926;BME280;55732;52.248;-0.844;2023-02-11T01:10:11;102577.88;;;7.78;88.89
62926;BME280;55732;52.248;-0.844;2023-02-11T01:12:37;102575.66;;;7.80;88.91
62926;BME280;55732;52.248;-0.844;2023-02-11T01:15:04;102572.36;;;7.80;88.80
62926;BME280;55732;52.248;-0.844;2023-02-11T01:17:30;102568.20;;;7.81;88.78
62926;BME280;55732;52.248;-0.844;2023-02-11T01:19:55;102565.60;;;7.82;88.88
62926;BME280;55732;52.248;-0.844;2023-02-11T01:22:20;102567.82;;;7.81;88.80
62926;BME280;55732;52.248;-0.844;2023-02-11T01:24:46;102579.88;;;7.80;88.74
62926;BME280;55732;52.248;-0.844;2023-02-11T01:27:11;102584.57;;;7.78;88.81
62926;BME280;55732;52.248;-0.844;2023-02-11T01:29:37;102589.48;;;7.78;88.82
62926;BME280;55732;52.248;-0.844;2023-02-11T01:32:02;102591.72;;;7.77;88.85
62926;BME280;55732;52.248;-0.844;2023-02-11T01:34:28;102590.90;;;7.79;88.99
62926;BME280;55732;52.248;-0.844;2023-02-11T01:36:57;102587.94;;;7.80;88.95
62926;BME280;55732;52.248;-0.844;2023-02-11T01:39:23;102587.09;;;7.80;88.84
62926;BME280;55732;52.248;-0.844;2023-02-11T01:41:49;102595.48;;;7.79;88.80
62926;BME280;55732;52.248;-0.844;2023-02-11T01:46:51;102588.92;;;7.78;88.66
62926;BME280;55732;52.248;-0.844;2023-02-11T01:49:43;102582.21;;;7.77;88.60
62926;BME280;55732;52.248;-0.844;2023-02-11T01:52:20;102578.53;;;7.76;88.56
62926;BME280;55732;52.248;-0.844;2023-02-11T01:54:53;102581.49;;;7.76;88.42
62926;BME280;55732;52.248;-0.844;2023-02-11T01:57:42;102575.45;;;7.74;88.31
62926;BME280;55732;52.248;-0.844;2023-02-11T02:00:15;102576.43;;;7.73;88.20
62926;BME280;55732;52.248;-0.844;2023-02-11T02:07:53;102587.42;;;7.63;88.50
62926;BME280;55732;52.248;-0.844;2023-02-11T02:10:24;102591.33;;;7.60;88.42
62926;BME280;55732;52.248;-0.844;2023-02-11T02:12:50;102589.36;;;7.55;88.42
62926;BME280;55732;52.248;-0.844;2023-02-11T02:15:22;102596.55;;;7.51;88.48
62926;BME280;55732;52.248;-0.844;2023-02-11T02:17:56;102596.90;;;7.48;88.54
62926;BME280;55732;52.248;-0.844;2023-02-11T02:30:58;102608.88;;;7.33;89.15
62926;BME280;55732;52.248;-0.844;2023-02-11T02:36:26;102607.52;;;7.30;89.43
62926;BME280;55732;52.248;-0.844;2023-02-11T02:39:17;102609.42;;;7.30;89.49
62926;BME280;55732;52.248;-0.844;2023-02-11T02:41:45;102603.00;;;7.31;89.61
62926;BME280;55732;52.248;-0.844;2023-02-11T02:44:12;102600.92;;;7.32;89.60
62926;BME280;55732;52.248;-0.844;2023-02-11T02:46:38;102600.62;;;7.33;89.63
62926;BME280;55732;52.248;-0.844;2023-02-11T02:49:06;102598.95;;;7.35;89.61
62926;BME280;55732;52.248;-0.844;2023-02-11T03:05:51;102592.30;;;7.42;89.58
62926;BME280;55732;52.248;-0.844;2023-02-11T03:10:53;102584.50;;;7.44;89.49
62926;BME280;55732;52.248;-0.844;2023-02-11T03:13:21;102584.00;;;7.45;89.35
62926;BME280;55732;52.248;-0.844;2023-02-11T03:15:51;102571.35;;;7.44;89.40
62926;BME280;55732;52.248;-0.844;2023-02-11T03:18:21;102571.00;;;7.45;89.39
62926;BME280;55732;52.248;-0.844;2023-02-11T03:20:50;102569.73;;;7.43;89.34
62926;BME280;55732;52.248;-0.844;2023-02-11T03:23:34;102563.55;;;7.42;89.38
62926;BME280;55732;52.248;-0.844;2023-02-11T03:31:21;102539.52;;;7.38;88.94
62926;BME280;55732;52.248;-0.844;2023-02-11T03:33:58;102540.23;;;7.34;89.31
62926;BME280;55732;52.248;-0.844;2023-02-11T03:36:34;102546.77;;;7.35;89.34
62926;BME280;55732;52.248;-0.844;2023-02-11T03:39:03;102553.50;;;7.37;89.37
62926;BME280;55732;52.248;-0.844;2023-02-11T03:41:30;102559.28;;;7.37;89.34
62926;BME280;55732;52.248;-0.844;2023-02-11T03:43:58;102556.65;;;7.37;89.36
62926;BME280;55732;52.248;-0.844;2023-02-11T03:46:38;102554.41;;;7.38;89.40
62926;BME280;55732;52.248;-0.844;2023-02-11T03:49:10;102543.98;;;7.39;89.37
62926;BME280;55732;52.248;-0.844;2023-02-11T03:51:37;102547.34;;;7.40;89.25
62926;BME280;55732;52.248;-0.844;2023-02-11T03:54:08;102549.30;;;7.41;89.18
62926;BME280;55732;52.248;-0.844;2023-02-11T03:56:50;102554.96;;;7.42;89.27
62926;BME280;55732;52.248;-0.844;2023-02-11T03:59:16;102556.94;;;7.44;89.26
62926;BME280;55732;52.248;-0.844;2023-02-11T04:01:42;102560.52;;;7.45;89.14
62926;BME280;55732;52.248;-0.844;2023-02-11T04:04:08;102562.13;;;7.46;89.20
62926;BME280;55732;52.248;-0.844;2023-02-11T04:06:33;102566.40;;;7.47;89.31
62926;BME280;55732;52.248;-0.844;2023-02-11T04:08:59;102561.59;;;7.49;89.23
62926;BME280;55732;52.248;-0.844;2023-02-11T04:11:24;102562.04;;;7.51;89.08
62926;BME280;55732;52.248;-0.844;2023-02-11T04:13:50;102562.98;;;7.53;88.98
62926;BME280;55732;52.248;-0.844;2023-02-11T04:16:15;102562.48;;;7.53;88.88
62926;BME280;55732;52.248;-0.844;2023-02-11T04:18:41;102566.02;;;7.54;88.85
62926;BME280;55732;52.248;-0.844;2023-02-11T04:21:06;102570.06;;;7.55;88.87
62926;BME280;55732;52.248;-0.844;2023-02-11T04:23:31;102578.11;;;7.54;88.87
62926;BME280;55732;52.248;-0.844;2023-02-11T04:25:57;102575.66;;;7.54;88.99
62926;BME280;55732;52.248;-0.844;2023-02-11T04:28:22;102573.20;;;7.54;89.06
62926;BME280;55732;52.248;-0.844;2023-02-11T04:30:49;102575.16;;;7.55;88.88
62926;BME280;55732;52.248;-0.844;2023-02-11T04:33:15;102572.55;;;7.56;88.76
62926;BME280;55732;52.248;-0.844;2023-02-11T04:35:41;102572.02;;;7.56;88.98
62926;BME280;55732;52.248;-0.844;2023-02-11T04:38:06;102571.20;;;7.57;88.90
62926;BME280;55732;52.248;-0.844;2023-02-11T04:40:32;102579.98;;;7.57;88.75
62926;BME280;55732;52.248;-0.844;2023-02-11T04:42:57;102589.23;;;7.56;88.76
62926;BME280;55732;52.248;-0.844;2023-02-11T04:45:22;102590.16;;;7.58;88.85
62926;BME280;55732;52.248;-0.844;2023-02-11T04:47:48;102594.86;;;7.57;88.89
62926;BME280;55732;52.248;-0.844;2023-02-11T04:50:13;102597.64;;;7.56;88.88
62926;BME280;55732;52.248;-0.844;2023-02-11T04:52:39;102594.28;;;7.56;88.83
62926;BME280;55732;52.248;-0.844;2023-02-11T04:55:04;102599.14;;;7.54;88.85
62926;BME280;55732;52.248;-0.844;2023-02-11T04:57:30;102593.15;;;7.53;88.75
62926;BME280;55732;52.248;-0.844;2023-02-11T04:59:55;102594.92;;;7.50;88.44
62926;BME280;55732;52.248;-0.844;2023-02-11T05:02:21;102599.27;;;7.45;88.40
62926;BME280;55732;52.248;-0.844;2023-02-11T05:04:46;102605.99;;;7.39;88.33
62926;BME280;55732;52.248;-0.844;2023-02-11T05:07:12;102604.29;;;7.32;88.35
62926;BME280;55732;52.248;-0.844;2023-02-11T05:09:37;102600.23;;;7.23;88.29
62926;BME280;55732;52.248;-0.844;2023-02-11T05:12:03;102602.88;;;7.16;88.46
62926;BME280;55732;52.248;-0.844;2023-02-11T05:14:28;102604.08;;;7.08;88.38
62926;BME280;55732;52.248;-0.844;2023-02-11T05:16:53;102606.06;;;7.01;88.49
62926;BME280;55732;52.248;-0.844;2023-02-11T05:19:19;102598.90;;;6.94;88.42
62926;BME280;55732;52.248;-0.844;2023-02-11T05:21:44;102607.30;;;6.86;88.38
62926;BME280;55732;52.248;-0.844;2023-02-11T05:24:10;102610.65;;;6.79;88.32
62926;BME280;55732;52.248;-0.844;2023-02-11T05:26:35;102610.85;;;6.73;88.25
62926;BME280;55732;52.248;-0.844;2023-02-11T05:29:00;102610.73;;;6.63;88.15
62926;BME280;55732;52.248;-0.844;2023-02-11T05:31:26;102610.52;;;6.55;88.22
62926;BME280;55732;52.248;-0.844;2023-02-11T05:33:51;102609.95;;;6.46;88.19
62926;BME280;55732;52.248;-0.844;2023-02-11T05:36:17;102608.54;;;6.39;88.25
62926;BME280;55732;52.248;-0.844;2023-02-11T05:38:42;102609.27;;;6.32;88.43
62926;BME280;55732;52.248;-0.844;2023-02-11T05:41:09;102609.92;;;6.28;88.60
62926;BME280;55732;52.248;-0.844;2023-02-11T05:43:34;102606.42;;;6.24;88.86
62926;BME280;55732;52.248;-0.844;2023-02-11T05:46:02;102614.09;;;6.20;89.01
62926;BME280;55732;52.248;-0.844;2023-02-11T05:48:28;102613.57;;;6.17;89.00
62926;BME280;55732;52.248;-0.844;2023-02-11T05:50:53;102611.43;;;6.12;88.89
62926;BME280;55732;52.248;-0.844;2023-02-11T05:53:19;102602.25;;;6.07;88.80
62926;BME280;55732;52.248;-0.844;2023-02-11T05:55:44;102600.41;;;6.02;88.69
62926;BME280;55732;52.248;-0.844;2023-02-11T05:58:10;102606.46;;;5.97;88.74
62926;BME280;55732;52.248;-0.844;2023-02-11T06:00:38;102612.81;;;5.91;88.85
62926;BME280;55732;52.248;-0.844;2023-02-11T06:03:04;102614.13;;;5.86;88.88
62926;BME280;55732;52.248;-0.844;2023-02-11T06:05:30;102625.83;;;5.83;89.25
62926;BME280;55732;52.248;-0.844;2023-02-11T06:07:55;102629.85;;;5.79;89.12
62926;BME280;55732;52.248;-0.844;2023-02-11T06:10:21;102625.41;;;5.74;89.19
62926;BME280;55732;52.248;-0.844;2023-02-11T06:12:46;102632.21;;;5.71;89.21
62926;BME280;55732;52.248;-0.844;2023-02-11T06:15:12;102637.29;;;5.68;89.29
62926;BME280;55732;52.248;-0.844;2023-02-11T06:17:38;102630.34;;;5.65;89.47
62926;BME280;55732;52.248;-0.844;2023-02-11T06:20:05;102628.45;;;5.62;89.45
62926;BME280;55732;52.248;-0.844;2023-02-11T06:22:31;102629.30;;;5.59;89.50
62926;BME280;55732;52.248;-0.844;2023-02-11T06:24:57;102638.57;;;5.56;89.52
62926;BME280;55732;52.248;-0.844;2023-02-11T06:27:22;102638.08;;;5.52;89.21
62926;BME280;55732;52.248;-0.844;2023-02-11T06:29:48;102642.77;;;5.49;89.32
62926;BME280;55732;52.248;-0.844;2023-02-11T06:32:14;102642.29;;;5.47;89.42
62926;BME280;55732;52.248;-0.844;2023-02-11T06:34:39;102641.98;;;5.44;89.47
62926;BME280;55732;52.248;-0.844;2023-02-11T06:37:05;102640.93;;;5.40;89.48
62926;BME280;55732;52.248;-0.844;2023-02-11T06:39:31;102644.65;;;5.38;89.59
62926;BME280;55732;52.248;-0.844;2023-02-11T06:41:56;102643.99;;;5.36;89.50
62926;BME280;55732;52.248;-0.844;2023-02-11T06:44:22;102648.38;;;5.33;89.36
62926;BME280;55732;52.248;-0.844;2023-02-11T06:46:47;102650.02;;;5.30;89.45
62926;BME280;55732;52.248;-0.844;2023-02-11T06:49:13;102649.94;;;5.29;89.53
62926;BME280;55732;52.248;-0.844;2023-02-11T06:51:39;102653.54;;;5.28;89.58
62926;BME280;55732;52.248;-0.844;2023-02-11T06:54:05;102651.73;;;5.27;89.88
62926;BME280;55732;52.248;-0.844;2023-02-11T06:56:31;102649.70;;;5.28;90.20
62926;BME280;55732;52.248;-0.844;2023-02-11T06:58:58;102646.87;;;5.30;90.37
62926;BME280;55732;52.248;-0.844;2023-02-11T07:01:25;102651.66;;;5.35;90.69
62926;BME280;55732;52.248;-0.844;2023-02-11T07:03:51;102654.24;;;5.41;90.97
62926;BME280;55732;52.248;-0.844;2023-02-11T07:06:21;102655.98;;;5.47;91.14
62926;BME280;55732;52.248;-0.844;2023-02-11T07:08:47;102654.08;;;5.55;91.23
62926;BME280;55732;52.248;-0.844;2023-02-11T07:11:16;102653.74;;;5.62;91.32
62926;BME280;55732;52.248;-0.844;2023-02-11T07:13:42;102655.86;;;5.68;91.52
62926;BME280;55732;52.248;-0.844;2023-02-11T07:16:10;102653.13;;;5.76;91.53
62926;BME280;55732;52.248;-0.844;2023-02-11T07:18:36;102655.23;;;5.84;91.27
62926;BME280;55732;52.248;-0.844;2023-02-11T07:21:06;102651.09;;;5.88;91.07
62926;BME280;55732;52.248;-0.844;2023-02-11T07:23:32;102655.45;;;5.91;90.92
62926;BME280;55732;52.248;-0.844;2023-02-11T07:26:02;102657.85;;;5.93;90.95
62926;BME280;55732;52.248;-0.844;2023-02-11T07:28:28;102664.17;;;5.97;91.00
62926;BME280;55732;52.248;-0.844;2023-02-11T07:30:53;102667.45;;;5.99;90.87
62926;BME280;55732;52.248;-0.844;2023-02-11T07:33:19;102677.36;;;6.02;90.82
62926;BME280;55732;52.248;-0.844;2023-02-11T07:35:44;102678.73;;;6.05;90.75
62926;BME280;55732;52.248;-0.844;2023-02-11T07:38:09;102682.09;;;6.09;90.72
62926;BME280;55732;52.248;-0.844;2023-02-11T07:40:35;102679.14;;;6.13;90.57
62926;BME280;55732;52.248;-0.844;2023-02-11T07:43:01;102675.81;;;6.16;90.16
62926;BME280;55732;52.248;-0.844;2023-02-11T07:45:27;102681.98;;;6.21;90.08
62926;BME280;55732;52.248;-0.844;2023-02-11T07:47:52;102685.61;;;6.27;90.12
62926;BME280;55732;52.248;-0.844;2023-02-11T07:50:18;102681.39;;;6.33;89.93
62926;BME280;55732;52.248;-0.844;2023-02-11T07:52:43;102677.88;;;6.36;89.68
62926;BME280;55732;52.248;-0.844;2023-02-11T07:55:09;102677.05;;;6.37;89.70
62926;BME280;55732;52.248;-0.844;2023-02-11T07:57:35;102681.18;;;6.39;89.75
62926;BME280;55732;52.248;-0.844;2023-02-11T08:00:01;102688.86;;;6.43;89.80
62926;BME280;55732;52.248;-0.844;2023-02-11T08:02:26;102695.95;;;6.48;90.07
62926;BME280;55732;52.248;-0.844;2023-02-11T08:04:52;102694.77;;;6.56;89.84
62926;BME280;55732;52.248;-0.844;2023-02-11T08:07:18;102698.53;;;6.65;89.46
62926;BME280;55732;52.248;-0.844;2023-02-11T08:09:44;102700.52;;;6.74;89.29
62926;BME280;55732;52.248;-0.844;2023-02-11T08:12:09;102701.00;;;6.83;89.12
62926;BME280;55732;52.248;-0.844;2023-02-11T08:14:35;102700.30;;;6.94;89.01
62926;BME280;55732;52.248;-0.844;2023-02-11T08:17:02;102703.81;;;7.05;88.99
62926;BME280;55732;52.248;-0.844;2023-02-11T08:19:27;102699.36;;;7.15;88.97
62926;BME280;55732;52.248;-0.844;2023-02-11T08:21:56;102703.52;;;7.22;88.99
62926;BME280;55732;52.248;-0.844;2023-02-11T08:24:22;102707.68;;;7.24;88.98
62926;BME280;55732;52.248;-0.844;2023-02-11T08:26:48;102708.86;;;7.28;88.88
62926;BME280;55732;52.248;-0.844;2023-02-11T08:29:15;102708.88;;;7.32;88.92
62926;BME280;55732;52.248;-0.844;2023-02-11T08:31:43;102707.59;;;7.38;88.92
62926;BME280;55732;52.248;-0.844;2023-02-11T08:34:09;102703.02;;;7.45;88.95
62926;BME280;55732;52.248;-0.844;2023-02-11T08:36:37;102696.80;;;7.55;88.97
62926;BME280;55732;52.248;-0.844;2023-02-11T08:39:05;102698.75;;;7.67;89.02
62926;BME280;55732;52.248;-0.844;2023-02-11T08:41:33;102704.48;;;7.78;88.77
62926;BME280;55732;52.248;-0.844;2023-02-11T08:43:59;102707.69;;;7.87;88.66
62926;BME280;55732;52.248;-0.844;2023-02-11T08:46:25;102713.65;;;7.94;88.47
62926;BME280;55732;52.248;-0.844;2023-02-11T08:48:51;102717.96;;;8.01;88.34
62926;BME280;55732;52.248;-0.844;2023-02-11T08:51:20;102718.81;;;8.09;88.29
62926;BME280;55732;52.248;-0.844;2023-02-11T08:53:46;102714.00;;;8.19;88.21
62926;BME280;55732;52.248;-0.844;2023-02-11T08:56:14;102708.95;;;8.28;88.03
62926;BME280;55732;52.248;-0.844;2023-02-11T08:58:40;102712.59;;;8.39;88.08
62926;BME280;55732;52.248;-0.844;2023-02-11T09:01:15;102710.13;;;8.51;87.74
62926;BME280;55732;52.248;-0.844;2023-02-11T09:03:41;102706.86;;;8.66;87.46
62926;BME280;55732;52.248;-0.844;2023-02-11T09:06:08;102702.80;;;8.83;87.50
62926;BME280;55732;52.248;-0.844;2023-02-11T09:08:35;102696.83;;;9.01;87.03
62926;BME280;55732;52.248;-0.844;2023-02-11T09:11:01;102697.83;;;9.17;86.61
62926;BME280;55732;52.248;-0.844;2023-02-11T09:13:27;102704.58;;;9.33;86.14
62926;BME280;55732;52.248;-0.844;2023-02-11T09:15:52;102710.73;;;9.42;85.99
62926;BME280;55732;52.248;-0.844;2023-02-11T09:18:18;102710.73;;;9.52;86.00
62926;BME280;55732;52.248;-0.844;2023-02-11T09:20:43;102715.02;;;9.63;85.65
62926;BME280;55732;52.248;-0.844;2023-02-11T09:23:09;102713.72;;;9.71;85.23
62926;BME280;55732;52.248;-0.844;2023-02-11T09:25:38;102716.55;;;9.81;85.00
62926;BME280;55732;52.248;-0.844;2023-02-11T09:28:04;102711.59;;;9.90;84.65
62926;BME280;55732;52.248;-0.844;2023-02-11T09:30:29;102712.34;;;9.96;84.45
62926;BME280;55732;52.248;-0.844;2023-02-11T09:32:54;102717.65;;;10.01;84.45
62926;BME280;55732;52.248;-0.844;2023-02-11T09:35:20;102722.14;;;10.09;84.15
62926;BME280;55732;52.248;-0.844;2023-02-11T09:37:45;102727.22;;;10.18;83.89
62926;BME280;55732;52.248;-0.844;2023-02-11T09:40:11;102728.64;;;10.33;83.65
62926;BME280;55732;52.248;-0.844;2023-02-11T09:45:23;102719.16;;;10.66;82.69
62926;BME280;55732;52.248;-0.844;2023-02-11T09:48:06;102711.73;;;10.81;82.28
62926;BME280;55732;52.248;-0.844;2023-02-11T09:50:42;102711.63;;;11.00;81.64
62926;BME280;55732;52.248;-0.844;2023-02-11T09:55:45;102717.96;;;11.28;80.03
62926;BME280;55732;52.248;-0.844;2023-02-11T09:58:13;102723.89;;;11.32;79.37
62926;BME280;55732;52.248;-0.844;2023-02-11T10:00:44;102725.58;;;11.36;78.82
62926;BME280;55732;52.248;-0.844;2023-02-11T10:09:03;102735.38;;;11.33;77.71
62926;BME280;55732;52.248;-0.844;2023-02-11T10:14:41;102729.08;;;11.46;77.16
62926;BME280;55732;52.248;-0.844;2023-02-11T10:18:13;102722.10;;;11.61;76.23
62926;BME280;55732;52.248;-0.844;2023-02-11T10:20:37;102729.29;;;11.83;75.56
62926;BME280;55732;52.248;-0.844;2023-02-11T10:23:24;102725.56;;;12.02;75.15
62926;BME280;55732;52.248;-0.844;2023-02-11T10:25:52;102722.77;;;12.16;74.79
62926;BME280;55732;52.248;-0.844;2023-02-11T10:28:22;102719.48;;;12.25;74.26
62926;BME280;55732;52.248;-0.844;2023-02-11T10:31:08;102714.65;;;12.37;73.83
62926;BME280;55732;52.248;-0.844;2023-02-11T10:36:24;102714.47;;;12.65;71.75
62926;BME280;55732;52.248;-0.844;2023-02-11T10:38:50;102711.55;;;12.61;71.17
62926;BME280;55732;52.248;-0.844;2023-02-11T10:41:20;102717.59;;;12.62;71.08
62926;BME280;55732;52.248;-0.844;2023-02-11T10:43:47;102719.85;;;12.68;70.47
62926;BME280;55732;52.248;-0.844;2023-02-11T10:46:23;102718.45;;;12.75;69.89
62926;BME280;55732;52.248;-0.844;2023-02-11T10:48:52;102714.72;;;12.89;69.83
62926;BME280;55732;52.248;-0.844;2023-02-11T10:56:47;102710.23;;;13.16;68.13
62926;BME280;55732;52.248;-0.844;2023-02-11T10:59:30;102717.73;;;13.05;68.12
62926;BME280;55732;52.248;-0.844;2023-02-11T11:04:55;102729.31;;;12.78;67.67
62926;BME280;55732;52.248;-0.844;2023-02-11T11:07:24;102723.27;;;12.70;67.37
62926;BME280;55732;52.248;-0.844;2023-02-11T11:17:35;102718.77;;;12.53;66.78
62926;BME280;55732;52.248;-0.844;2023-02-11T11:20:23;102714.20;;;12.60;66.96
62926;BME280;55732;52.248;-0.844;2023-02-11T11:23:06;102716.73;;;12.70;66.80
62926;BME280;55732;52.248;-0.844;2023-02-11T11:25:34;102717.08;;;12.70;66.55
62926;BME280;55732;52.248;-0.844;2023-02-11T11:28:02;102720.05;;;12.61;66.28
62926;BME280;55732;52.248;-0.844;2023-02-11T11:30:37;102724.39;;;12.51;66.44
62926;BME280;55732;52.248;-0.844;2023-02-11T11:33:17;102729.83;;;12.43;66.66
62926;BME280;55732;52.248;-0.844;2023-02-11T11:35:58;102725.92;;;12.42;66.76
62926;BME280;55732;52.248;-0.844;2023-02-11T11:38:24;102715.41;;;12.53;66.37
62926;BME280;55732;52.248;-0.844;2023-02-11T11:43:38;102707.70;;;12.62;66.47
62926;BME280;55732;52.248;-0.844;2023-02-11T11:46:04;102709.16;;;12.64;66.30
62926;BME280;55732;52.248;-0.844;2023-02-11T11:48:39;102714.13;;;12.65;65.91
62926;BME280;55732;52.248;-0.844;2023-02-11T11:51:09;102721.48;;;12.69;65.53
62926;BME280;55732;52.248;-0.844;2023-02-11T11:53:47;102727.05;;;12.73;65.49
62926;BME280;55732;52.248;-0.844;2023-02-11T11:56:25;102725.31;;;12.82;65.53
62926;BME280;55732;52.248;-0.844;2023-02-11T11:58:51;102720.10;;;12.85;65.62
62926;BME280;55732;52.248;-0.844;2023-02-11T12:12:51;102712.39;;;12.95;64.71
62926;BME280;55732;52.248;-0.844;2023-02-11T12:26:19;102728.69;;;12.40;65.49
62926;BME280;55732;52.248;-0.844;2023-02-11T12:31:52;102727.88;;;12.21;65.79
62926;BME280;55732;52.248;-0.844;2023-02-11T12:34:29;102726.57;;;12.12;65.99
62926;BME280;55732;52.248;-0.844;2023-02-11T12:39:48;102728.05;;;12.02;66.44
62926;BME280;55732;52.248;-0.844;2023-02-11T13:02:29;102730.60;;;11.86;66.29
62926;BME280;55732;52.248;-0.844;2023-02-11T13:05:24;102736.51;;;11.83;66.34
62926;BME280;55732;52.248;-0.844;2023-02-11T13:07:54;102741.32;;;11.78;66.51
62926;BME280;55732;52.248;-0.844;2023-02-11T13:10:35;102742.79;;;11.75;66.59
62926;BME280;55732;52.248;-0.844;2023-02-11T13:13:08;102736.88;;;11.72;66.58
62926;BME280;55732;52.248;-0.844;2023-02-11T13:15:43;102727.85;;;11.71;66.69
62926;BME280;55732;52.248;-0.844;2023-02-11T13:23:24;102724.42;;;11.75;66.45
62926;BME280;55732;52.248;-0.844;2023-02-11T13:26:01;102725.10;;;11.74;66.38
62926;BME280;55732;52.248;-0.844;2023-02-11T13:28:56;102720.62;;;11.72;66.39
62926;BME280;55732;52.248;-0.844;2023-02-11T13:31:18;102717.25;;;11.71;66.36
62926;BME280;55732;52.248;-0.844;2023-02-11T13:33:45;102713.16;;;11.70;66.64
62926;BME280;55732;52.248;-0.844;2023-02-11T13:36:18;102709.43;;;11.69;66.49
62926;BME280;55732;52.248;-0.844;2023-02-11T13:38:53;102708.73;;;11.69;66.49
62926;BME280;55732;52.248;-0.844;2023-02-11T13:41:30;102709.31;;;11.71;66.70
62926;BME280;55732;52.248;-0.844;2023-02-11T13:44:05;102712.05;;;11.74;66.71
62926;BME280;55732;52.248;-0.844;2023-02-11T13:47:00;102713.81;;;11.74;66.59
62926;BME280;55732;52.248;-0.844;2023-02-11T13:52:03;102709.81;;;11.70;66.57
62926;BME280;55732;52.248;-0.844;2023-02-11T13:54:35;102705.56;;;11.69;66.68
62926;BME280;55732;52.248;-0.844;2023-02-11T13:59:48;102706.94;;;11.62;66.54
62926;BME280;55732;52.248;-0.844;2023-02-11T14:02:33;102704.38;;;11.58;66.51
62926;BME280;55732;52.248;-0.844;2023-02-11T14:05:30;102709.09;;;11.56;66.72
62926;BME280;55732;52.248;-0.844;2023-02-11T14:08:20;102700.96;;;11.55;66.79
62926;BME280;55732;52.248;-0.844;2023-02-11T14:16:18;102702.55;;;11.50;66.63
62926;BME280;55732;52.248;-0.844;2023-02-11T14:21:15;102707.57;;;11.41;66.89
62926;BME280;55732;52.248;-0.844;2023-02-11T14:23:42;102709.39;;;11.37;67.11
62926;BME280;55732;52.248;-0.844;2023-02-11T14:28:47;102712.03;;;11.37;67.11
62926;BME280;55732;52.248;-0.844;2023-02-11T14:42:25;102707.97;;;11.30;67.25
62926;BME280;55732;52.248;-0.844;2023-02-11T14:44:51;102709.48;;;11.28;67.35
62926;BME280;55732;52.248;-0.844;2023-02-11T14:47:22;102712.05;;;11.26;67.42
62926;BME280;55732;52.248;-0.844;2023-02-11T14:49:50;102718.30;;;11.22;67.54
62926;BME280;55732;52.248;-0.844;2023-02-11T14:54:51;102723.42;;;11.16;67.62
62926;BME280;55732;52.248;-0.844;2023-02-11T14:57:23;102722.81;;;11.14;67.87
62926;BME280;55732;52.248;-0.844;2023-02-11T14:59:58;102722.52;;;11.11;67.69
62926;BME280;55732;52.248;-0.844;2023-02-11T15:02:37;102726.14;;;11.07;67.65
62926;BME280;55732;52.248;-0.844;2023-02-11T15:05:32;102721.47;;;11.05;67.93
62926;BME280;55732;52.248;-0.844;2023-02-11T15:08:00;102718.67;;;11.01;68.08
62926;BME280;55732;52.248;-0.844;2023-02-11T15:10:32;102715.69;;;10.95;68.04
62926;BME280;55732;52.248;-0.844;2023-02-11T15:13:00;102713.48;;;10.92;68.55
62926;BME280;55732;52.248;-0.844;2023-02-11T15:15:27;102712.67;;;10.89;68.68
62926;BME280;55732;52.248;-0.844;2023-02-11T15:17:55;102710.66;;;10.86;68.62
62926;BME280;55732;52.248;-0.844;2023-02-11T15:20:27;102710.98;;;10.84;68.63
62926;BME280;55732;52.248;-0.844;2023-02-11T15:23:06;102715.37;;;10.84;68.58
62926;BME280;55732;52.248;-0.844;2023-02-11T15:25:32;102721.33;;;10.83;68.92
62926;BME280;55732;52.248;-0.844;2023-02-11T15:27:58;102720.95;;;10.82;68.72
62926;BME280;55732;52.248;-0.844;2023-02-11T15:30:27;102720.34;;;10.80;68.55
62926;BME280;55732;52.248;-0.844;2023-02-11T15:32:55;102720.62;;;10.78;68.79
62926;BME280;55732;52.248;-0.844;2023-02-11T15:35:37;102718.09;;;10.76;68.65
62926;BME280;55732;52.248;-0.844;2023-02-11T15:38:06;102717.84;;;10.74;68.70
62926;BME280;55732;52.248;-0.844;2023-02-11T15:40:34;102723.41;;;10.72;68.71